Time;durP1;ratioP1;P1;durP2;ratioP2;P2;SDS_P1;SDS_P2;PMS_P1;PMS_P2;Temp;Humidity;BMP_temperature;BMP_pressure;BME280_temperature;BME280_humidity;BME280_pressure;Samples;Min_cycle;Max_cycle;Signal;HPM_P1;HPM_P2
2023/12/08 00:00:51;;;;;;;37.43;14.47;;;;;;;;;;5072889;28;20187;-78
2023/12/08 00:03:29;;;;;;;32.20;13.20;;;;;;;;;;5072833;28;20222;-78
2023/12/08 00:05:56;;;;;;;37.90;15.67;;;;;;;;;;5073194;28;20210;-78
2023/12/08 00:08:23;;;;;;;39.10;15.13;;;;;;;;;;5073058;28;20199;-79
2023/12/08 00:10:50;;;;;;;31.50;13.57;;;;;;;;;;5073149;28;20207;-79
2023/12/08 00:13:17;;;;;;;30.27;13.67;;;;;;;;;;5072812;28;20200;-78
2023/12/08 00:15:44;;;;;;;38.70;15.63;;;;;;;;;;5071684;28;20559;-78
2023/12/08 00:18:11;;;;;;;28.30;12.93;;;;;;;;;;5072553;28;20609;-78
2023/12/08 00:20:39;;;;;;;30.83;13.67;;;;;;;;;;5073211;28;20218;-79
2023/12/08 00:23:06;;;;;;;31.80;14.63;;;;;;;;;;5072707;28;20208;-78
2023/12/08 00:25:33;;;;;;;28.37;12.33;;;;;;;;;;5073059;28;20235;-80
2023/12/08 00:28:00;;;;;;;36.10;13.43;;;;;;;;;;5073046;28;20209;-77
2023/12/08 00:30:27;;;;;;;24.97;12.37;;;;;;;;;;5072690;28;20195;-77
2023/12/08 00:32:54;;;;;;;30.73;12.57;;;;;;;;;;5072544;28;20204;-77
2023/12/08 00:35:22;;;;;;;26.20;11.17;;;;;;;;;;5072489;28;20195;-77
2023/12/08 00:37:49;;;;;;;33.20;13.13;;;;;;;;;;5071931;28;20202;-77
2023/12/08 00:40:17;;;;;;;27.13;12.57;;;;;;;;;;5072614;28;20196;-78
2023/12/08 00:42:44;;;;;;;26.40;11.63;;;;;;;;;;5071598;28;20203;-79
2023/12/08 00:45:11;;;;;;;33.27;12.77;;;;;;;;;;5073897;28;20234;-79
2023/12/08 00:47:38;;;;;;;45.40;17.27;;;;;;;;;;5076380;28;20203;-79
2023/12/08 00:50:07;;;;;;;27.30;11.63;;;;;;;;;;5076446;28;20210;-79
2023/12/08 00:52:34;;;;;;;27.03;11.57;;;;;;;;;;5074093;28;20714;-77
2023/12/08 00:55:01;;;;;;;25.33;12.30;;;;;;;;;;5073897;28;20215;-77
2023/12/08 00:57:28;;;;;;;24.47;10.97;;;;;;;;;;5057497;28;20234;-77
2023/12/08 00:59:56;;;;;;;25.10;11.13;;;;;;;;;;5073722;28;20211;-77
2023/12/08 01:02:23;;;;;;;31.80;12.33;;;;;;;;;;5057334;28;20199;-77
2023/12/08 01:04:51;;;;;;;28.50;12.97;;;;;;;;;;5073447;28;20243;-78
2023/12/08 01:07:18;;;;;;;24.83;11.63;;;;;;;;;;5073676;28;20222;-77
2023/12/08 01:09:45;;;;;;;26.53;13.13;;;;;;;;;;5073827;28;20207;-77
2023/12/08 01:12:12;;;;;;;43.07;14.27;;;;;;;;;;5073626;28;20203;-77
2023/12/08 01:14:40;;;;;;;31.33;11.33;;;;;;;;;;5073860;28;20203;-77
2023/12/08 01:17:07;;;;;;;30.57;12.97;;;;;;;;;;5073650;28;20306;-77
2023/12/08 01:19:34;;;;;;;27.90;11.97;;;;;;;;;;5073780;28;20211;-77
2023/12/08 01:22:01;;;;;;;34.67;12.70;;;;;;;;;;5073552;28;20199;-77
2023/12/08 01:24:28;;;;;;;28.00;11.93;;;;;;;;;;5073195;28;20227;-77
2023/12/08 01:26:55;;;;;;;26.93;10.93;;;;;;;;;;5057022;28;20206;-77
2023/12/08 01:29:23;;;;;;;30.93;12.63;;;;;;;;;;5073954;28;20265;-77
2023/12/08 01:31:50;;;;;;;34.77;15.63;;;;;;;;;;5075689;28;20195;-77
2023/12/08 01:34:17;;;;;;;26.87;11.90;;;;;;;;;;5075614;28;20195;-77
2023/12/08 01:36:44;;;;;;;30.37;11.67;;;;;;;;;;5075753;28;20207;-77
2023/12/08 01:39:12;;;;;;;22.70;11.03;;;;;;;;;;5075416;28;20206;-77
2023/12/08 01:41:39;;;;;;;47.57;21.07;;;;;;;;;;5075661;28;20202;-77
2023/12/08 01:44:07;;;;;;;39.50;14.37;;;;;;;;;;5075378;28;20215;-77
2023/12/08 01:46:35;;;;;;;29.30;11.23;;;;;;;;;;5075514;28;20195;-79
2023/12/08 01:49:02;;;;;;;23.03;11.13;;;;;;;;;;5073897;28;20207;-77
2023/12/08 01:51:30;;;;;;;32.57;12.30;;;;;;;;;;5075730;28;20223;-77
2023/12/08 01:53:57;;;;;;;30.03;12.20;;;;;;;;;;5073810;28;20621;-78
2023/12/08 01:56:25;;;;;;;29.80;12.23;;;;;;;;;;5073377;28;20703;-78
2023/12/08 01:58:53;;;;;;;22.90;11.17;;;;;;;;;;5073827;28;20210;-78
2023/12/08 02:01:21;;;;;;;24.90;11.20;;;;;;;;;;5074165;28;20192;-78
2023/12/08 02:03:50;;;;;;;25.97;11.93;;;;;;;;;;5074774;28;20218;-78
2023/12/08 02:06:18;;;;;;;27.03;12.40;;;;;;;;;;5074813;28;20196;-80
2023/12/08 02:08:48;;;;;;;30.37;12.10;;;;;;;;;;5075001;28;20199;-77
2023/12/08 02:11:16;;;;;;;26.80;12.83;;;;;;;;;;5075199;28;20675;-77
2023/12/08 02:13:44;;;;;;;29.53;13.53;;;;;;;;;;5074700;28;20229;-78
2023/12/08 02:16:24;;;;;;;30.77;13.47;;;;;;;;;;5073499;28;20204;-77
2023/12/08 02:18:51;;;;;;;35.93;13.37;;;;;;;;;;5056846;28;20211;-78
2023/12/08 02:21:19;;;;;;;24.47;11.40;;;;;;;;;;5073700;28;20317;-80
2023/12/08 02:23:48;;;;;;;34.60;14.23;;;;;;;;;;5056736;28;20188;-79
2023/12/08 02:26:16;;;;;;;22.30;11.37;;;;;;;;;;5073161;28;20250;-80
2023/12/08 02:28:44;;;;;;;34.13;13.50;;;;;;;;;;5074292;28;20210;-77
2023/12/08 02:31:13;;;;;;;29.20;13.27;;;;;;;;;;5074193;28;20206;-80
2023/12/08 02:33:44;;;;;;;31.70;13.77;;;;;;;;;;5072931;28;20249;-78
2023/12/08 02:36:13;;;;;;;29.77;13.33;;;;;;;;;;5072930;28;20238;-78
2023/12/08 02:38:41;;;;;;;46.23;15.30;;;;;;;;;;5073032;28;20250;-78
2023/12/08 02:41:08;;;;;;;26.50;12.57;;;;;;;;;;5074166;28;20245;-77
2023/12/08 02:43:35;;;;;;;31.63;13.43;;;;;;;;;;5074116;28;20191;-77
2023/12/08 02:46:03;;;;;;;25.80;12.10;;;;;;;;;;5073696;28;20223;-78
2023/12/08 02:48:29;;;;;;;30.83;13.63;;;;;;;;;;5074102;28;20196;-77
2023/12/08 02:50:57;;;;;;;34.10;14.23;;;;;;;;;;5073730;28;20656;-77
2023/12/08 02:53:24;;;;;;;26.97;12.43;;;;;;;;;;5072805;28;20187;-77
2023/12/08 02:55:51;;;;;;;54.27;17.07;;;;;;;;;;5072413;28;20265;-77
2023/12/08 02:58:18;;;;;;;30.00;13.10;;;;;;;;;;5072985;28;20215;-77
2023/12/08 03:00:46;;;;;;;30.67;14.03;;;;;;;;;;5073331;28;20718;-77
2023/12/08 03:03:13;;;;;;;34.37;13.13;;;;;;;;;;5073800;28;20237;-78
2023/12/08 03:05:40;;;;;;;36.83;13.33;;;;;;;;;;5073700;28;20222;-77
2023/12/08 03:08:07;;;;;;;34.40;16.97;;;;;;;;;;5072905;28;20196;-77
2023/12/08 03:10:34;;;;;;;34.20;13.93;;;;;;;;;;5072332;28;20203;-77
2023/12/08 03:13:01;;;;;;;33.57;13.83;;;;;;;;;;5073596;28;20955;-77
2023/12/08 03:15:31;;;;;;;31.47;12.67;;;;;;;;;;5072479;28;20239;-77
2023/12/08 03:17:58;;;;;;;27.33;13.30;;;;;;;;;;5073407;28;20210;-79
2023/12/08 03:20:25;;;;;;;33.67;14.63;;;;;;;;;;5073605;28;20655;-79
2023/12/08 03:22:52;;;;;;;34.53;14.00;;;;;;;;;;5073353;28;20227;-79
2023/12/08 03:25:20;;;;;;;32.83;13.33;;;;;;;;;;5073148;28;20243;-77
2023/12/08 03:27:46;;;;;;;32.13;13.70;;;;;;;;;;5073394;28;20195;-77
2023/12/08 03:30:14;;;;;;;30.50;12.50;;;;;;;;;;5072105;28;20644;-77
2023/12/08 03:32:41;;;;;;;28.43;13.47;;;;;;;;;;5073581;28;20210;-77
2023/12/08 03:35:08;;;;;;;31.30;13.67;;;;;;;;;;5073323;28;20200;-77
2023/12/08 03:37:35;;;;;;;28.93;13.47;;;;;;;;;;5073116;28;20194;-78
2023/12/08 03:40:03;;;;;;;28.60;13.77;;;;;;;;;;5072556;28;20203;-77
2023/12/08 03:42:35;;;;;;;32.13;13.80;;;;;;;;;;5073134;28;20196;-77
2023/12/08 03:45:03;;;;;;;34.87;14.17;;;;;;;;;;5073375;28;20238;-77
2023/12/08 03:47:30;;;;;;;32.03;12.80;;;;;;;;;;5073291;28;20614;-77
2023/12/08 03:49:58;;;;;;;29.60;13.47;;;;;;;;;;5073281;28;20192;-79
2023/12/08 03:52:25;;;;;;;32.83;13.73;;;;;;;;;;5073282;28;20214;-79
2023/12/08 03:54:52;;;;;;;35.93;14.63;;;;;;;;;;5072961;28;20563;-77
2023/12/08 03:57:20;;;;;;;36.87;14.17;;;;;;;;;;5073376;28;20199;-77
2023/12/08 03:59:47;;;;;;;38.73;15.53;;;;;;;;;;5073342;28;20195;-77
2023/12/08 04:02:14;;;;;;;34.33;16.20;;;;;;;;;;5073266;28;20286;-77
2023/12/08 04:04:42;;;;;;;37.17;14.60;;;;;;;;;;5073099;28;20226;-77
2023/12/08 04:07:09;;;;;;;40.73;14.47;;;;;;;;;;5072944;28;20218;-77
2023/12/08 04:09:36;;;;;;;37.53;13.33;;;;;;;;;;5073085;28;20199;-77
2023/12/08 04:12:03;;;;;;;31.00;13.07;;;;;;;;;;5073001;28;20264;-77
2023/12/08 04:14:31;;;;;;;34.33;14.07;;;;;;;;;;5073085;28;20203;-77
2023/12/08 04:16:57;;;;;;;30.00;13.33;;;;;;;;;;5072998;28;20191;-78
2023/12/08 04:19:25;;;;;;;28.67;13.70;;;;;;;;;;5073056;28;20249;-78
2023/12/08 04:21:52;;;;;;;33.30;14.03;;;;;;;;;;5076793;28;20198;-79
2023/12/08 04:24:20;;;;;;;34.43;13.77;;;;;;;;;;5075228;28;20739;-78
2023/12/08 04:26:47;;;;;;;30.60;12.77;;;;;;;;;;5076858;28;20563;-79
2023/12/08 04:29:14;;;;;;;32.33;12.47;;;;;;;;;;5076774;28;20200;-79
2023/12/08 04:31:41;;;;;;;39.03;14.93;;;;;;;;;;5075442;28;20191;-79
2023/12/08 04:34:09;;;;;;;28.97;13.27;;;;;;;;;;5076233;28;20199;-79
2023/12/08 04:36:36;;;;;;;30.57;13.60;;;;;;;;;;5076474;28;20219;-79
2023/12/08 04:39:03;;;;;;;35.90;13.77;;;;;;;;;;5075488;28;20545;-79
2023/12/08 04:41:30;;;;;;;32.50;13.47;;;;;;;;;;5075879;28;20207;-79
2023/12/08 04:43:57;;;;;;;28.70;12.87;;;;;;;;;;5076673;28;20710;-79
2023/12/08 04:46:24;;;;;;;38.53;14.03;;;;;;;;;;5076257;28;20219;-77
2023/12/08 04:48:52;;;;;;;27.70;12.73;;;;;;;;;;5076260;28;20640;-78
2023/12/08 04:51:19;;;;;;;30.30;12.90;;;;;;;;;;5079259;28;20660;-78
2023/12/08 04:53:46;;;;;;;32.10;12.60;;;;;;;;;;5082738;28;20643;-78
2023/12/08 04:56:13;;;;;;;38.77;17.07;;;;;;;;;;5086097;28;20188;-79
2023/12/08 04:58:41;;;;;;;36.10;13.47;;;;;;;;;;5075499;28;20207;-79
2023/12/08 05:01:14;;;;;;;38.87;14.97;;;;;;;;;;5075950;28;20223;-78
2023/12/08 05:03:41;;;;;;;40.97;14.93;;;;;;;;;;5076110;28;20210;-78
2023/12/08 05:06:09;;;;;;;54.83;20.80;;;;;;;;;;5063974;28;20231;-79
2023/12/08 05:08:36;;;;;;;34.50;14.17;;;;;;;;;;5073660;28;20242;-78
2023/12/08 05:11:03;;;;;;;40.20;14.00;;;;;;;;;;5065932;28;20584;-78
2023/12/08 05:13:31;;;;;;;36.23;14.13;;;;;;;;;;5071469;28;20227;-78
2023/12/08 05:15:58;;;;;;;38.90;13.80;;;;;;;;;;5074524;28;20230;-78
2023/12/08 05:18:25;;;;;;;33.80;14.47;;;;;;;;;;5073904;28;20787;-78
2023/12/08 05:20:52;;;;;;;51.43;16.53;;;;;;;;;;5072817;28;20274;-79
2023/12/08 05:23:20;;;;;;;29.03;13.27;;;;;;;;;;5074280;28;20219;-78
2023/12/08 05:25:47;;;;;;;32.70;12.07;;;;;;;;;;5073334;28;20581;-78
2023/12/08 05:28:14;;;;;;;36.57;14.87;;;;;;;;;;5075142;28;20231;-78
2023/12/08 05:30:41;;;;;;;28.97;12.13;;;;;;;;;;5073508;28;20223;-79
2023/12/08 05:33:08;;;;;;;29.03;12.07;;;;;;;;;;5072763;28;20239;-79
2023/12/08 05:35:36;;;;;;;38.03;14.03;;;;;;;;;;5074297;28;20219;-79
2023/12/08 05:38:03;;;;;;;35.03;13.73;;;;;;;;;;5074677;28;20234;-79
2023/12/08 05:40:30;;;;;;;30.87;13.63;;;;;;;;;;5074746;28;20737;-78
2023/12/08 05:42:57;;;;;;;28.53;11.80;;;;;;;;;;5074451;28;20373;-79
2023/12/08 05:45:24;;;;;;;33.83;13.30;;;;;;;;;;5074881;28;20241;-79
2023/12/08 05:47:52;;;;;;;42.33;15.57;;;;;;;;;;5074190;28;20231;-80
2023/12/08 05:50:19;;;;;;;29.17;12.60;;;;;;;;;;5073211;28;20284;-79
2023/12/08 05:52:46;;;;;;;28.20;11.97;;;;;;;;;;5073164;28;20235;-79
2023/12/08 05:55:13;;;;;;;25.63;11.47;;;;;;;;;;5072814;28;20227;-79
2023/12/08 05:57:40;;;;;;;27.23;11.43;;;;;;;;;;5061642;28;20232;-79
2023/12/08 06:00:11;;;;;;;34.60;17.33;;;;;;;;;;5062639;28;20302;-79
2023/12/08 06:02:38;;;;;;;28.73;12.67;;;;;;;;;;5064245;28;20242;-79
2023/12/08 06:05:06;;;;;;;33.17;11.93;;;;;;;;;;5063442;28;20271;-79
2023/12/08 06:07:33;;;;;;;30.87;13.23;;;;;;;;;;5066179;28;20619;-79
2023/12/08 06:10:01;;;;;;;31.37;13.43;;;;;;;;;;5068965;28;20258;-79
2023/12/08 06:12:28;;;;;;;59.07;18.27;;;;;;;;;;5069936;28;20232;-79
2023/12/08 06:14:59;;;;;;;21.27;10.30;;;;;;;;;;5054169;28;20222;-79
2023/12/08 06:17:27;;;;;;;27.40;11.57;;;;;;;;;;5040029;28;20306;-79
2023/12/08 06:19:56;;;;;;;24.80;12.63;;;;;;;;;;5064047;28;20219;-79
2023/12/08 06:22:23;;;;;;;34.97;15.93;;;;;;;;;;5066277;28;20200;-79
2023/12/08 06:24:50;;;;;;;35.20;12.87;;;;;;;;;;5063012;28;20220;-79
2023/12/08 06:27:17;;;;;;;35.93;12.13;;;;;;;;;;5065173;28;20213;-79
2023/12/08 06:29:44;;;;;;;24.73;9.87;;;;;;;;;;5066285;28;20200;-79
2023/12/08 06:32:12;;;;;;;42.07;17.07;;;;;;;;;;5063869;28;20588;-79
2023/12/08 06:34:39;;;;;;;22.97;10.57;;;;;;;;;;5074137;28;20208;-79
2023/12/08 06:37:06;;;;;;;26.33;11.47;;;;;;;;;;5062364;28;20637;-79
2023/12/08 06:39:33;;;;;;;20.60;10.13;;;;;;;;;;5065297;28;20265;-79
2023/12/08 06:42:00;;;;;;;22.57;10.63;;;;;;;;;;5064618;28;20199;-79
2023/12/08 06:44:29;;;;;;;34.13;14.43;;;;;;;;;;5053469;28;20208;-79
2023/12/08 06:46:56;;;;;;;25.23;10.90;;;;;;;;;;5054045;28;20575;-79
2023/12/08 06:49:23;;;;;;;24.33;10.83;;;;;;;;;;5054214;28;20204;-79
2023/12/08 06:51:50;;;;;;;25.13;11.00;;;;;;;;;;5053984;28;20227;-79
2023/12/08 06:54:18;;;;;;;44.00;17.83;;;;;;;;;;5062991;28;20194;-79
2023/12/08 06:56:45;;;;;;;46.73;16.20;;;;;;;;;;5054053;28;20196;-79
2023/12/08 06:59:12;;;;;;;36.47;14.27;;;;;;;;;;5054137;28;20201;-79
2023/12/08 07:01:40;;;;;;;31.97;14.00;;;;;;;;;;5060066;28;20214;-79
2023/12/08 07:04:08;;;;;;;25.67;11.50;;;;;;;;;;5072880;28;20191;-79
2023/12/08 07:06:35;;;;;;;41.33;14.47;;;;;;;;;;5074380;28;20233;-79
2023/12/08 07:09:02;;;;;;;26.00;11.70;;;;;;;;;;5074262;28;20705;-79
2023/12/08 07:11:30;;;;;;;26.63;11.43;;;;;;;;;;5072739;28;20187;-79
2023/12/08 07:13:57;;;;;;;27.37;10.40;;;;;;;;;;5073990;28;20223;-79
2023/12/08 07:16:24;;;;;;;40.87;16.03;;;;;;;;;;5073162;28;20637;-79
2023/12/08 07:18:51;;;;;;;31.60;11.77;;;;;;;;;;5073723;28;20751;-79
2023/12/08 07:21:21;;;;;;;23.40;10.87;;;;;;;;;;5074167;28;20192;-79
2023/12/08 07:23:48;;;;;;;27.87;11.13;;;;;;;;;;5073294;28;20568;-79
2023/12/08 07:26:16;;;;;;;50.13;21.47;;;;;;;;;;5073483;28;20231;-79
2023/12/08 07:28:43;;;;;;;34.57;12.50;;;;;;;;;;5072497;28;20658;-79
2023/12/08 07:31:12;;;;;;;25.87;11.13;;;;;;;;;;5073287;28;20260;-79
2023/12/08 07:33:39;;;;;;;34.57;12.33;;;;;;;;;;5073389;28;20206;-79
2023/12/08 07:36:06;;;;;;;37.40;14.20;;;;;;;;;;5073784;28;20230;-79
2023/12/08 07:38:34;;;;;;;31.37;12.67;;;;;;;;;;5073628;28;20222;-79
2023/12/08 07:41:01;;;;;;;25.90;12.00;;;;;;;;;;5072061;28;20210;-79
2023/12/08 07:43:28;;;;;;;26.73;11.50;;;;;;;;;;5073261;28;20519;-79
2023/12/08 07:45:56;;;;;;;34.83;13.70;;;;;;;;;;5073136;28;20219;-80
2023/12/08 07:48:23;;;;;;;37.10;14.80;;;;;;;;;;5073353;28;20199;-79
2023/12/08 07:50:50;;;;;;;33.40;12.63;;;;;;;;;;5073159;28;20206;-79
2023/12/08 07:53:17;;;;;;;26.90;11.30;;;;;;;;;;5073466;28;20282;-79
2023/12/08 07:55:44;;;;;;;29.80;11.17;;;;;;;;;;5064613;28;20196;-79
2023/12/08 07:58:11;;;;;;;41.73;16.47;;;;;;;;;;5057222;28;20202;-79
2023/12/08 08:00:39;;;;;;;37.90;14.50;;;;;;;;;;5057159;28;20208;-79
2023/12/08 08:03:06;;;;;;;40.77;13.93;;;;;;;;;;5056133;28;20208;-79
2023/12/08 08:05:33;;;;;;;39.40;15.87;;;;;;;;;;5057167;28;20202;-79
2023/12/08 08:08:02;;;;;;;31.97;12.97;;;;;;;;;;5057115;28;20278;-79
2023/12/08 08:10:29;;;;;;;26.47;12.03;;;;;;;;;;5057110;28;20203;-79
2023/12/08 08:12:56;;;;;;;29.57;12.50;;;;;;;;;;5056783;28;20234;-79
2023/12/08 08:15:23;;;;;;;27.90;12.20;;;;;;;;;;5056703;28;20192;-79
2023/12/08 08:17:50;;;;;;;28.87;12.67;;;;;;;;;;5056711;28;20200;-79
2023/12/08 08:20:18;;;;;;;43.20;17.87;;;;;;;;;;5056721;28;20196;-79
2023/12/08 08:22:45;;;;;;;43.03;14.53;;;;;;;;;;5056880;28;20227;-79
2023/12/08 08:25:12;;;;;;;35.63;13.37;;;;;;;;;;5074577;28;20274;-80
2023/12/08 08:27:39;;;;;;;31.67;13.03;;;;;;;;;;5076550;28;20221;-79
2023/12/08 08:30:07;;;;;;;45.80;17.37;;;;;;;;;;5076714;28;20204;-79
2023/12/08 08:32:34;;;;;;;34.73;13.13;;;;;;;;;;5056812;28;20200;-79
2023/12/08 08:35:02;;;;;;;47.47;14.80;;;;;;;;;;5055623;28;20196;-79
2023/12/08 08:37:29;;;;;;;48.53;14.07;;;;;;;;;;5056540;28;20246;-79
2023/12/08 08:39:57;;;;;;;28.37;11.17;;;;;;;;;;5056405;28;20192;-79
2023/12/08 08:42:24;;;;;;;40.33;13.27;;;;;;;;;;5056957;28;20280;-79
2023/12/08 08:44:52;;;;;;;33.37;11.80;;;;;;;;;;5056341;28;20215;-78
2023/12/08 08:47:19;;;;;;;30.47;12.17;;;;;;;;;;5057853;28;20223;-79
2023/12/08 08:49:46;;;;;;;25.50;10.40;;;;;;;;;;5056852;28;20561;-79
2023/12/08 08:52:14;;;;;;;34.03;16.57;;;;;;;;;;5062441;28;20184;-79
2023/12/08 08:54:41;;;;;;;41.00;13.00;;;;;;;;;;5056021;28;20200;-79
2023/12/08 08:57:08;;;;;;;32.13;11.40;;;;;;;;;;5055942;28;20541;-79
2023/12/08 08:59:36;;;;;;;34.67;12.33;;;;;;;;;;5056450;28;20197;-79
2023/12/08 09:02:03;;;;;;;34.03;12.77;;;;;;;;;;5056175;28;20254;-79
2023/12/08 09:04:30;;;;;;;56.23;18.03;;;;;;;;;;5056253;28;20549;-78
2023/12/08 09:06:58;;;;;;;26.53;11.63;;;;;;;;;;5055869;28;20226;-79
2023/12/08 09:09:25;;;;;;;32.60;11.60;;;;;;;;;;5059636;28;20191;-79
2023/12/08 09:11:54;;;;;;;27.70;11.50;;;;;;;;;;5075708;28;20248;-79
2023/12/08 09:14:22;;;;;;;34.30;16.43;;;;;;;;;;5074819;28;20196;-79
2023/12/08 09:16:48;;;;;;;42.47;13.27;;;;;;;;;;5075878;28;20727;-79
2023/12/08 09:19:16;;;;;;;36.17;13.03;;;;;;;;;;5074617;28;20214;-79
2023/12/08 09:21:43;;;;;;;23.23;11.83;;;;;;;;;;5075513;28;20203;-79
2023/12/08 09:24:21;;;;;;;34.37;14.10;;;;;;;;;;5075875;28;20528;-79
2023/12/08 09:26:48;;;;;;;27.33;11.23;;;;;;;;;;5074484;28;20544;-79
2023/12/08 09:29:17;;;;;;;65.47;17.77;;;;;;;;;;5074583;28;20196;-79
2023/12/08 09:31:44;;;;;;;29.07;10.37;;;;;;;;;;5068031;28;20246;-79
2023/12/08 09:34:11;;;;;;;23.23;9.97;;;;;;;;;;5056040;28;20208;-79
2023/12/08 09:36:38;;;;;;;37.83;14.73;;;;;;;;;;5055898;28;20621;-79
2023/12/08 09:39:08;;;;;;;29.10;11.37;;;;;;;;;;5055522;28;20204;-79
2023/12/08 09:41:39;;;;;;;31.03;11.03;;;;;;;;;;5054402;28;20637;-79
2023/12/08 09:44:11;;;;;;;26.07;10.73;;;;;;;;;;5054423;28;20246;-79
2023/12/08 09:46:44;;;;;;;42.37;18.77;;;;;;;;;;5038235;28;20255;-79
2023/12/08 09:49:26;;;;;;;56.63;16.90;;;;;;;;;;5054561;28;20257;-79
2023/12/08 09:51:54;;;;;;;126.93;26.93;;;;;;;;;;5054259;28;20641;-79
2023/12/08 09:54:22;;;;;;;89.73;20.80;;;;;;;;;;5055623;28;20215;-79
2023/12/08 09:56:54;;;;;;;69.07;36.87;;;;;;;;;;5053920;28;20241;-79
2023/12/08 09:59:25;;;;;;;32.13;11.70;;;;;;;;;;5055170;28;20192;-79
2023/12/08 10:01:52;;;;;;;38.70;12.00;;;;;;;;;;5054052;28;20215;-79
2023/12/08 10:04:20;;;;;;;66.27;17.33;;;;;;;;;;5055240;28;20196;-78
2023/12/08 10:06:47;;;;;;;105.70;29.73;;;;;;;;;;5053853;28;20735;-79
2023/12/08 10:09:19;;;;;;;105.00;25.60;;;;;;;;;;5054008;28;20208;-78
2023/12/08 10:11:46;;;;;;;21.93;9.00;;;;;;;;;;5055088;28;20288;-79
2023/12/08 10:14:14;;;;;;;34.90;11.27;;;;;;;;;;5064759;28;20196;-78
2023/12/08 10:16:47;;;;;;;30.37;11.60;;;;;;;;;;5053555;28;20196;-78
2023/12/08 10:19:14;;;;;;;33.30;13.63;;;;;;;;;;5053078;28;20192;-79
2023/12/08 10:21:41;;;;;;;36.03;11.83;;;;;;;;;;5054926;28;20198;-78
2023/12/08 10:24:09;;;;;;;27.53;10.27;;;;;;;;;;5053414;28;20223;-78
2023/12/08 10:26:36;;;;;;;24.43;9.70;;;;;;;;;;5054819;28;20315;-78
2023/12/08 10:29:03;;;;;;;105.83;49.93;;;;;;;;;;5054356;28;20208;-78
2023/12/08 10:31:30;;;;;;;43.80;14.30;;;;;;;;;;5054493;28;20222;-78
2023/12/08 10:33:57;;;;;;;30.93;11.33;;;;;;;;;;5054334;28;20216;-79
2023/12/08 10:36:25;;;;;;;57.17;21.57;;;;;;;;;;5073216;28;20274;-79
2023/12/08 10:38:52;;;;;;;212.97;75.67;;;;;;;;;;5074248;28;20191;-79
2023/12/08 10:41:20;;;;;;;266.50;82.90;;;;;;;;;;5074247;28;20195;-79
2023/12/08 10:43:47;;;;;;;356.30;100.77;;;;;;;;;;5074171;28;20211;-78
2023/12/08 10:46:14;;;;;;;647.53;214.73;;;;;;;;;;5074179;28;20191;-78
2023/12/08 10:48:42;;;;;;;556.20;171.57;;;;;;;;;;5065298;28;20188;-78
2023/12/08 10:51:13;;;;;;;642.07;214.40;;;;;;;;;;5061791;28;20206;-79
2023/12/08 10:53:41;;;;;;;272.47;84.07;;;;;;;;;;5074286;28;20619;-79
2023/12/08 10:56:10;;;;;;;35.17;15.87;;;;;;;;;;5074056;28;20577;-78
2023/12/08 10:58:40;;;;;;;22.73;11.43;;;;;;;;;;5073957;28;20191;-79
2023/12/08 11:01:12;;;;;;;44.57;24.10;;;;;;;;;;5073694;28;20281;-79
2023/12/08 11:03:44;;;;;;;34.77;13.57;;;;;;;;;;5072690;28;20196;-78
2023/12/08 11:06:29;;;;;;;31.40;11.57;;;;;;;;;;5073412;28;20249;-79
2023/12/08 11:09:00;;;;;;;24.60;9.27;;;;;;;;;;5056140;28;20324;-78
2023/12/08 11:11:28;;;;;;;119.37;46.40;;;;;;;;;;5071503;28;20200;-79
2023/12/08 11:14:09;;;;;;;41.97;13.17;;;;;;;;;;5055427;28;20211;-78
2023/12/08 11:17:17;;;;;;;58.70;21.00;;;;;;;;;;5073361;28;20256;-78
2023/12/08 11:19:45;;;;;;;42.90;14.17;;;;;;;;;;5031452;28;20219;-78
2023/12/08 11:22:13;;;;;;;128.60;33.83;;;;;;;;;;5059505;28;20207;-79
2023/12/08 11:24:41;;;;;;;39.83;13.43;;;;;;;;;;5051931;28;20228;-79
2023/12/08 11:27:14;;;;;;;63.63;23.93;;;;;;;;;;5064665;28;20537;-78
2023/12/08 11:29:57;;;;;;;57.13;23.87;;;;;;;;;;5072702;28;20546;-79
2023/12/08 11:33:08;;;;;;;74.83;32.57;;;;;;;;;;5073607;28;20653;-78
2023/12/08 11:35:36;;;;;;;173.33;43.13;;;;;;;;;;5031075;28;20306;-79
2023/12/08 11:38:03;;;;;;;91.03;28.17;;;;;;;;;;5029380;28;20209;-79
2023/12/08 11:40:31;;;;;;;66.40;21.83;;;;;;;;;;5011463;28;20217;-78
2023/12/08 11:42:59;;;;;;;56.73;22.23;;;;;;;;;;5017606;28;20216;-78
2023/12/08 11:45:27;;;;;;;60.70;22.00;;;;;;;;;;5031058;28;20220;-78
2023/12/08 11:47:55;;;;;;;104.87;25.93;;;;;;;;;;5014745;28;20221;-79
2023/12/08 11:50:24;;;;;;;102.27;27.60;;;;;;;;;;5014934;28;20197;-79
2023/12/08 11:52:52;;;;;;;88.77;28.90;;;;;;;;;;5015058;28;20219;-78
2023/12/08 11:58:02;;;;;;;121.03;31.57;;;;;;;;;;5030789;28;20215;-78
2023/12/08 12:00:35;;;;;;;133.20;46.80;;;;;;;;;;5031109;28;20219;-79
2023/12/08 12:03:05;;;;;;;64.90;26.67;;;;;;;;;;5015115;28;20204;-78
2023/12/08 12:05:32;;;;;;;139.03;46.37;;;;;;;;;;5014779;28;20586;-79
2023/12/08 12:08:00;;;;;;;117.43;37.23;;;;;;;;;;4999781;28;20629;-78
2023/12/08 12:10:28;;;;;;;140.10;44.03;;;;;;;;;;5011851;28;20232;-78
2023/12/08 12:13:03;;;;;;;125.30;36.97;;;;;;;;;;5046341;28;20268;-78
2023/12/08 12:15:33;;;;;;;131.00;36.37;;;;;;;;;;5072203;28;20202;-78
2023/12/08 12:18:01;;;;;;;270.73;76.63;;;;;;;;;;5073127;28;20645;-79
2023/12/08 12:20:30;;;;;;;140.63;43.73;;;;;;;;;;5071971;28;20207;-78
2023/12/08 12:22:58;;;;;;;67.87;21.93;;;;;;;;;;5064216;28;20200;-79
2023/12/08 12:25:25;;;;;;;241.47;60.23;;;;;;;;;;5067793;28;20607;-78
2023/12/08 12:27:54;;;;;;;148.47;51.80;;;;;;;;;;5051638;28;20224;-79
2023/12/08 12:30:22;;;;;;;114.17;33.00;;;;;;;;;;5051536;28;20224;-78
2023/12/08 12:32:50;;;;;;;131.33;39.13;;;;;;;;;;5051543;28;20680;-78
2023/12/08 12:35:18;;;;;;;163.87;50.90;;;;;;;;;;5069659;28;20241;-78
2023/12/08 12:37:45;;;;;;;150.67;45.57;;;;;;;;;;5052819;28;20196;-78
2023/12/08 12:40:13;;;;;;;89.33;29.40;;;;;;;;;;5051982;28;20196;-78
2023/12/08 12:42:41;;;;;;;47.10;17.70;;;;;;;;;;5056381;28;20305;-78
2023/12/08 12:45:10;;;;;;;90.33;30.67;;;;;;;;;;5056520;28;20298;-79
2023/12/08 12:47:38;;;;;;;106.27;33.20;;;;;;;;;;5068898;28;20277;-79
2023/12/08 12:50:07;;;;;;;113.60;36.27;;;;;;;;;;5074960;28;20274;-78
2023/12/08 12:52:36;;;;;;;104.87;31.57;;;;;;;;;;5062372;28;20223;-78
2023/12/08 12:55:22;;;;;;;46.43;19.20;;;;;;;;;;5055313;28;20200;-78
2023/12/08 12:57:49;;;;;;;41.87;18.17;;;;;;;;;;5038590;28;20203;-78
2023/12/08 13:00:37;;;;;;;47.97;20.37;;;;;;;;;;5056418;28;20200;-78
2023/12/08 13:03:09;;;;;;;34.97;12.80;;;;;;;;;;5064869;28;20233;-79
2023/12/08 13:05:53;;;;;;;32.57;13.80;;;;;;;;;;5063272;28;20322;-78
2023/12/08 13:08:21;;;;;;;134.23;39.93;;;;;;;;;;5056480;28;20571;-78
2023/12/08 13:10:50;;;;;;;77.53;29.63;;;;;;;;;;5055836;28;20195;-78
2023/12/08 13:13:17;;;;;;;49.00;15.90;;;;;;;;;;5071219;28;20196;-78
2023/12/08 13:15:45;;;;;;;36.47;12.43;;;;;;;;;;5057446;28;20211;-78
2023/12/08 13:18:13;;;;;;;34.57;12.13;;;;;;;;;;5072017;28;20196;-78
2023/12/08 13:20:41;;;;;;;33.67;12.47;;;;;;;;;;5075811;28;20195;-78
2023/12/08 13:23:08;;;;;;;51.43;20.70;;;;;;;;;;5075684;28;20199;-79
2023/12/08 13:25:36;;;;;;;77.63;24.33;;;;;;;;;;5075792;28;20223;-79
2023/12/08 13:28:04;;;;;;;60.20;22.60;;;;;;;;;;5075610;28;20247;-78
2023/12/08 13:30:32;;;;;;;40.60;16.77;;;;;;;;;;5074310;28;20191;-78
2023/12/08 13:32:59;;;;;;;51.93;20.97;;;;;;;;;;5075611;28;20636;-78
2023/12/08 13:35:32;;;;;;;44.00;17.77;;;;;;;;;;5072499;28;20215;-80
2023/12/08 13:37:59;;;;;;;32.30;13.13;;;;;;;;;;5072508;28;20196;-80
2023/12/08 13:40:28;;;;;;;52.13;15.90;;;;;;;;;;5062881;28;20231;-79
2023/12/08 13:42:55;;;;;;;70.83;27.77;;;;;;;;;;5072255;28;20284;-80
2023/12/08 13:45:23;;;;;;;124.40;35.47;;;;;;;;;;5074654;28;20252;-80
2023/12/08 13:47:50;;;;;;;48.77;18.83;;;;;;;;;;5061774;28;20231;-80
2023/12/08 13:50:18;;;;;;;47.17;17.40;;;;;;;;;;5071087;28;20247;-80
2023/12/08 13:52:44;;;;;;;40.80;18.33;;;;;;;;;;5062279;28;20238;-80
2023/12/08 13:55:12;;;;;;;54.73;28.10;;;;;;;;;;5059791;28;20362;-80
2023/12/08 13:57:39;;;;;;;517.57;143.87;;;;;;;;;;5073483;28;20310;-80
2023/12/08 14:00:08;;;;;;;246.40;63.93;;;;;;;;;;5058078;28;20224;-80
2023/12/08 14:02:36;;;;;;;432.80;134.80;;;;;;;;;;5053155;28;20231;-80
2023/12/08 14:05:03;;;;;;;266.93;79.83;;;;;;;;;;5054622;28;20285;-80
2023/12/08 14:07:31;;;;;;;121.10;38.43;;;;;;;;;;5070267;28;20234;-79
2023/12/08 14:09:58;;;;;;;153.67;41.97;;;;;;;;;;5072904;28;20214;-80
2023/12/08 14:12:25;;;;;;;122.40;34.97;;;;;;;;;;5073364;28;20708;-80
2023/12/08 14:14:52;;;;;;;213.77;58.00;;;;;;;;;;5073185;28;20269;-80
2023/12/08 14:17:20;;;;;;;159.73;48.77;;;;;;;;;;5063355;28;20227;-80
2023/12/08 14:19:47;;;;;;;210.07;69.43;;;;;;;;;;5052700;28;20289;-80
2023/12/08 14:22:14;;;;;;;150.97;50.37;;;;;;;;;;5054174;28;20240;-80
2023/12/08 14:24:42;;;;;;;185.30;56.70;;;;;;;;;;5054279;28;20228;-80